Great Bend, NY

3:13 PM EST on January 20, 2017 (GMT -0500)
Wheeler-Sack Army Air Field

Weather History for KGTB - February, 2014

Change the Weather History Date:

Friday, February 21, 2014

  Actual Average Record
Temperature  
Mean Temperature 36 °F -  
Max Temperature 39 °F 29 °F 59 °F (1997)
Min Temperature 32 °F 11 °F -3 °F (2008)
Degree Days  
Heating Degree Days 30    
Moisture  
Dew Point 34 °F    
Average Humidity 93    
Maximum Humidity 100    
Minimum Humidity 65    
Precipitation  
Precipitation 0.94 in - - ()
Sea Level Pressure  
Sea Level Pressure 29.69 in    
Wind  
Wind Speed 17 mph (South)    
Max Wind Speed 28 mph    
Max Gust Speed 39 mph    
Visibility 9 miles    
Events Rain , Snow    
Averages and records for this station are not official NWS values.
T = Trace of Precipitation, MM = Missing Value Source: NWS Daily Summary

Daily Weather History Graph

Daily Weather History Graph

Search for Another Location

Airport or City:

Trip Planner

Search our weather history database for the weather conditions in past years. The results will help you decide how hot, cold, wet, or windy it might be!

Date:

Astronomy

Feb. 21, 2014 Rise Set
Actual Time 6:52 AM EST 5:40 PM EST
Civil Twilight 6:23 AM EST 6:09 PM EST
Nautical Twilight 5:50 AM EST 6:43 PM EST
Astronomical Twilight 5:16 AM EST 7:17 PM EST
Moon No Moon Rise 10:01 AM EST (2/21)
Length of Visible Light 11h 46m
Length of Day
10h 47m
Waning Gibbous, 61% of the Moon is Illuminated
Feb 21
Waning Gibbous
Feb 22
Last Quarter
Mar 1
New
Mar 8
First Quarter
Mar 16
Full

Hourly Weather History & Observations

Time (EST) Temp. Windchill Dew Point Humidity Pressure Visibility Wind Dir Wind Speed Gust Speed Precip Events Conditions
12:58 AM 35.4 °F 24.9 °F 34.3 °F 96% 29.87 in 7.0 mi SE 18.4 mph - 0.04 in   Overcast
1:13 AM 35.6 °F 25.2 °F 33.8 °F 93% 29.86 in 8.0 mi SE 18.4 mph 25.3 mph N/A   Overcast
1:43 AM 35.6 °F 25.2 °F 33.8 °F 93% 29.83 in 8.0 mi SE 18.4 mph 24.2 mph N/A Rain Light Rain
1:58 AM 35.4 °F 25.6 °F 34.7 °F 97% 29.85 in 10.0 mi SE 16.1 mph 25.3 mph 0.08 in Rain Light Rain
2:43 AM 35.6 °F 24.5 °F 35.6 °F 100% 29.79 in 9.0 mi SE 20.7 mph 25.3 mph N/A Rain Light Rain
2:58 AM 35.4 °F 24.6 °F 34.9 °F 98% 29.80 in 7.0 mi SE 19.6 mph 26.5 mph 0.08 in   Overcast
3:58 AM 36.0 °F 24.7 °F 35.6 °F 99% 29.77 in 7.0 mi SE 21.9 mph 28.8 mph 0.10 in   Overcast
4:08 AM 35.6 °F 24.8 °F 35.6 °F 100% 29.74 in 10.0 mi SE 19.6 mph 29.9 mph N/A   Overcast
4:10 AM 35.6 °F 24.5 °F 35.6 °F 100% 29.74 in 10.0 mi SE 20.7 mph 29.9 mph N/A   Overcast
4:14 AM 35.6 °F 24.5 °F 35.6 °F 100% 29.74 in 10.0 mi SE 20.7 mph 27.6 mph N/A   Overcast
4:58 AM 36.9 °F 26.2 °F 36.3 °F 98% 29.76 in 10.0 mi SSE 20.7 mph 28.8 mph 0.07 in   Overcast
5:12 AM 37.4 °F 26.6 °F 37.4 °F 100% 29.73 in 10.0 mi SSE 21.9 mph 29.9 mph N/A   Overcast
5:21 AM 39.2 °F 28.5 °F 37.4 °F 93% 29.71 in 10.0 mi SSE 24.2 mph 35.7 mph N/A Rain Light Rain
5:57 AM 39.2 °F 28.0 °F 35.6 °F 87% 29.70 in 10.0 mi SSE 26.5 mph 32.2 mph N/A   Overcast
5:58 AM 39.2 °F 28.5 °F 35.6 °F 87% 29.72 in 10.0 mi SSE 24.2 mph 32.2 mph 0.01 in   Overcast
6:58 AM 38.3 °F 27.6 °F 35.8 °F 91% 29.67 in 10.0 mi SSE 23.0 mph 34.5 mph 0.00 in   Overcast
7:06 AM 39.2 °F 28.7 °F 35.6 °F 87% 29.66 in 10.0 mi SSE 23.0 mph 31.1 mph N/A   Overcast
7:38 AM 39.2 °F 28.7 °F 37.4 °F 93% 29.63 in 10.0 mi SSE 23.0 mph 32.2 mph N/A   Overcast
7:58 AM 39.2 °F 27.8 °F 36.3 °F 89% 29.64 in 10.0 mi SSE 27.6 mph 39.1 mph 0.02 in   Overcast
8:13 AM 39.2 °F 28.5 °F 37.4 °F 93% 29.62 in 9.0 mi SSE 24.2 mph 31.1 mph N/A   Overcast
8:58 AM 39.6 °F 28.7 °F 37.8 °F 93% 29.63 in 10.0 mi SSE 25.3 mph 36.8 mph 0.04 in Rain Light Rain
9:58 AM 39.2 °F 29.0 °F 38.5 °F 97% 29.58 in 10.0 mi SSE 21.9 mph 33.4 mph 0.09 in Rain Light Rain
10:58 AM 39.9 °F 29.7 °F 39.4 °F 98% 29.57 in 8.0 mi SSE 23.0 mph 28.8 mph 0.04 in   Overcast
11:28 AM 39.2 °F 30.8 °F 39.2 °F 100% 29.58 in 6.0 mi SSE 15.0 mph - N/A   Overcast
11:33 AM 39.2 °F 30.5 °F 39.2 °F 100% 29.59 in 7.0 mi SSE 16.1 mph - N/A   Overcast
11:38 AM 39.2 °F 31.2 °F 39.2 °F 100% 29.59 in 7.0 mi SSE 13.8 mph - N/A   Overcast
11:43 AM 39.2 °F 32.0 °F 39.2 °F 100% 29.58 in 6.0 mi SSE 11.5 mph - N/A   Overcast
11:58 AM 39.4 °F 33.8 °F 39.2 °F 99% 29.59 in 8.0 mi SSE 8.1 mph - 0.17 in Rain Light Rain
12:33 PM 39.2 °F 29.8 °F 39.2 °F 100% 29.62 in 4.0 mi WSW 18.4 mph 33.4 mph N/A Rain Rain
12:38 PM 37.4 °F 27.8 °F 37.4 °F 100% 29.62 in 6.0 mi WSW 17.3 mph 29.9 mph N/A Rain Rain
12:58 PM 35.8 °F 26.9 °F 35.6 °F 99% 29.66 in 10.0 mi WSW 13.8 mph 26.5 mph 0.11 in Rain Light Rain
1:18 PM 35.6 °F 26.2 °F 33.8 °F 93% 29.66 in 7.0 mi WSW 15.0 mph 28.8 mph N/A Snow Light Snow
1:23 PM 33.8 °F 23.5 °F 33.8 °F 100% 29.66 in 5.0 mi WSW 16.1 mph 28.8 mph N/A Snow Light Snow
1:48 PM 33.8 °F 25.3 °F 33.8 °F 100% 29.66 in 7.0 mi WSW 11.5 mph 20.7 mph N/A Snow Light Snow
1:58 PM 34.0 °F 25.0 °F 33.8 °F 99% 29.68 in 10.0 mi WSW 12.7 mph 20.7 mph 0.05 in   Overcast
2:28 PM 32.0 °F 23.6 °F 32.0 °F 100% 29.66 in 4.0 mi WSW 10.4 mph 18.4 mph N/A Snow Light Snow
2:43 PM 32.0 °F 23.0 °F 32.0 °F 100% 29.66 in 4.0 mi SW 11.5 mph 18.4 mph N/A Snow Light Snow
2:48 PM 32.0 °F 23.0 °F 32.0 °F 100% 29.65 in 5.0 mi SW 11.5 mph 18.4 mph N/A Snow Light Snow
2:58 PM 33.6 °F 26.8 °F 33.4 °F 99% 29.68 in 8.0 mi WSW 8.1 mph - 0.03 in Snow Light Snow
3:22 PM 33.8 °F 27.0 °F 32.0 °F 93% 29.65 in 10.0 mi SSW 8.1 mph - N/A   Scattered Clouds
3:24 PM 33.8 °F 26.4 °F 32.0 °F 93% 29.66 in 10.0 mi SSW 9.2 mph - N/A Rain Light Rain
3:41 PM 33.8 °F 25.8 °F 33.8 °F 100% 29.67 in 10.0 mi South 10.4 mph - N/A   Clear
3:58 PM 34.9 °F 26.6 °F 34.5 °F 99% 29.69 in 10.0 mi South 11.5 mph - 0.00 in   Clear
4:58 PM 36.3 °F 29.5 °F 31.6 °F 83% 29.69 in 10.0 mi South 9.2 mph - N/A   Scattered Clouds
5:50 PM 35.6 °F 28.6 °F 32.0 °F 87% 29.66 in 10.0 mi SSE 9.2 mph - N/A   Mostly Cloudy
5:57 PM 35.6 °F 28.0 °F 32.0 °F 87% 29.67 in 10.0 mi SSE 10.4 mph - N/A   Mostly Cloudy
5:58 PM 35.6 °F 28.0 °F 32.0 °F 87% 29.69 in 10.0 mi SSE 10.4 mph - 0.00 in   Mostly Cloudy
6:05 PM 35.6 °F 28.6 °F 32.0 °F 87% 29.66 in 10.0 mi SSE 9.2 mph - N/A   Mostly Cloudy
6:18 PM 35.6 °F 28.6 °F 32.0 °F 87% 29.66 in 10.0 mi SSE 9.2 mph - N/A   Scattered Clouds
6:53 PM 33.8 °F 29.6 °F 32.0 °F 93% 29.67 in 10.0 mi SSE 4.6 mph - N/A   Light Drizzle
6:58 PM 34.5 °F 31.6 °F 33.3 °F 95% 29.69 in 10.0 mi SSE 3.5 mph - 0.00 in   Light Drizzle
7:03 PM 33.8 °F 28.6 °F 32.0 °F 93% 29.67 in 10.0 mi SSE 5.8 mph - N/A   Light Drizzle
7:05 PM 33.8 °F 27.0 °F 32.0 °F 93% 29.68 in 10.0 mi South 8.1 mph - N/A   Mostly Cloudy
7:07 PM 33.8 °F 27.0 °F 32.0 °F 93% 29.68 in 10.0 mi South 8.1 mph - N/A   Light Drizzle
7:29 PM 35.6 °F 28.6 °F 32.0 °F 87% 29.68 in 10.0 mi SW 9.2 mph - N/A   Partly Cloudy
7:31 PM 35.6 °F 28.0 °F 32.0 °F 87% 29.68 in 10.0 mi SSW 10.4 mph - N/A   Light Drizzle
7:56 PM 37.4 °F 30.8 °F 32.0 °F 81% 29.69 in 10.0 mi WSW 9.2 mph - N/A Rain Light Rain
7:58 PM 36.5 °F 29.7 °F 33.6 °F 89% 29.71 in 10.0 mi WSW 9.2 mph - 0.00 in Rain Light Rain
8:18 PM 35.6 °F 26.6 °F 32.0 °F 87% 29.69 in 10.0 mi SW 13.8 mph 18.4 mph N/A Rain Light Rain
8:27 PM 35.6 °F 27.1 °F 32.0 °F 87% 29.69 in 10.0 mi SW 12.7 mph 20.7 mph N/A   Mostly Cloudy
8:50 PM 35.6 °F 25.9 °F 32.0 °F 87% 29.70 in 10.0 mi SW 16.1 mph 21.9 mph N/A Rain Light Rain
8:58 PM 36.5 °F 27.4 °F 31.6 °F 83% 29.72 in 10.0 mi SW 15.0 mph 21.9 mph 0.01 in Rain Light Rain
9:01 PM 35.6 °F 26.2 °F 32.0 °F 87% 29.70 in 10.0 mi SW 15.0 mph 23.0 mph N/A   Scattered Clouds
9:58 PM 36.1 °F 28.2 °F 29.8 °F 78% 29.72 in 10.0 mi SW 11.5 mph - 0.00 in   Overcast
10:58 PM 36.0 °F 29.0 °F 29.5 °F 77% 29.71 in 10.0 mi SW 9.2 mph - N/A   Overcast
11:58 PM 37.0 °F 27.0 °F 26.1 °F 65% 29.73 in 10.0 mi WSW 18.4 mph 25.3 mph N/A   Scattered Clouds